createdAt,value
2019-05-05T00:00:55.019Z,98655.13
2019-05-05T00:03:38.274Z,98655.13
2019-05-05T00:06:08.966Z,98661.34
2019-05-05T00:08:38.318Z,98655.18
2019-05-05T00:11:09.347Z,98649.33
2019-05-05T00:13:52.045Z,98648.38
2019-05-05T00:16:25.545Z,98644.27
2019-05-05T00:18:55.193Z,98643.36
2019-05-05T00:21:24.634Z,98637.15
2019-05-05T00:23:55.342Z,98639.75
2019-05-05T00:26:24.865Z,98639.91
2019-05-05T00:28:55.352Z,98639.66
2019-05-05T00:31:24.984Z,98630.55
2019-05-05T00:33:54.579Z,98631.70
2019-05-05T00:36:24.631Z,98633.35
2019-05-05T00:38:55.147Z,98629.45
2019-05-05T00:41:25.444Z,98619.03
2019-05-05T00:43:55.449Z,98618.84
2019-05-05T00:46:44.702Z,98614.78
2019-05-05T00:49:14.613Z,98610.88
2019-05-05T00:51:44.397Z,98607.47
2019-05-05T00:54:14.887Z,98602.07
2019-05-05T00:56:45.057Z,98595.25
2019-05-05T00:59:16.145Z,98592.80
2019-05-05T01:02:04.624Z,98588.70
2019-05-05T01:04:42.080Z,98585.91
2019-05-05T01:07:11.523Z,98586.89
2019-05-05T01:09:42.541Z,98583.75
2019-05-05T01:12:12.222Z,98576.39
2019-05-05T01:14:41.594Z,98568.89
2019-05-05T01:17:10.896Z,98571.83
2019-05-05T01:19:40.291Z,98565.78
2019-05-05T01:22:09.931Z,98572.09
2019-05-05T01:24:39.305Z,98571.23
2019-05-05T01:27:08.810Z,98570.53
2019-05-05T01:29:38.178Z,98566.31
2019-05-05T01:32:09.195Z,98559.32
2019-05-05T01:34:44.371Z,98554.41
2019-05-05T01:37:18.663Z,98558.13
2019-05-05T01:40:05.073Z,98558.61
2019-05-05T01:42:35.294Z,98547.52
2019-05-05T01:45:05.444Z,98534.00
2019-05-05T01:47:34.845Z,98530.75
2019-05-05T01:50:17.152Z,98535.90
2019-05-05T01:52:37.775Z,98530.50
2019-05-05T01:55:07.378Z,98522.55
2019-05-05T01:57:36.852Z,98528.59
2019-05-05T02:00:07.794Z,98524.50
2019-05-05T02:02:37.496Z,98522.19
2019-05-05T02:05:07.266Z,98514.39
2019-05-05T02:07:36.648Z,98511.30
2019-05-05T02:10:08.232Z,98514.88
2019-05-05T02:12:37.603Z,98515.50
2019-05-05T02:15:08.068Z,98514.34
2019-05-05T02:17:37.462Z,98510.94
2019-05-05T02:20:07.322Z,98506.23
2019-05-05T02:22:36.747Z,98511.09
2019-05-05T02:25:07.672Z,98502.92
2019-05-05T02:27:37.105Z,98504.08
2019-05-05T02:30:18.209Z,98498.03
2019-05-05T02:32:49.220Z,98502.08
2019-05-05T02:35:18.597Z,98503.73
2019-05-05T02:37:48.081Z,98502.08
2019-05-05T02:40:18.250Z,98495.93
2019-05-05T02:42:49.084Z,98488.12
2019-05-05T02:45:27.512Z,98485.68
2019-05-05T02:48:01.807Z,98486.32
2019-05-05T02:50:50.993Z,98490.83
2019-05-05T02:53:06.174Z,98483.57
2019-05-05T02:55:35.764Z,98488.92
2019-05-05T02:58:05.269Z,98487.27
2019-05-05T03:00:36.377Z,98480.14
2019-05-05T03:03:08.016Z,98483.88
2019-05-05T03:05:37.722Z,98472.53
2019-05-05T03:08:07.093Z,98469.93
2019-05-05T03:10:36.863Z,98466.03
2019-05-05T03:13:07.266Z,98459.04
2019-05-05T03:15:45.404Z,98456.44
2019-05-05T03:18:14.811Z,98454.63
2019-05-05T03:20:44.806Z,98453.67
2019-05-05T03:23:14.676Z,98458.19
2019-05-05T03:25:45.175Z,98458.53
2019-05-05T03:28:14.941Z,98458.83
2019-05-05T03:30:45.776Z,98450.07
2019-05-05T03:33:16.385Z,98445.34
2019-05-05T03:35:46.528Z,98445.98
2019-05-05T03:38:16.790Z,98428.59
2019-05-05T03:40:48.258Z,98436.38
2019-05-05T03:43:25.456Z,98430.23
2019-05-05T03:45:56.797Z,98423.08
2019-05-05T03:48:26.466Z,98416.73
2019-05-05T03:50:56.031Z,98417.59
2019-05-05T03:53:25.536Z,98427.69
2019-05-05T03:55:55.605Z,98426.77
2019-05-05T03:58:25.571Z,98432.44
2019-05-05T04:01:14.535Z,98440.58
2019-05-05T04:03:43.945Z,98442.69
2019-05-05T04:06:14.670Z,98446.59
2019-05-05T04:08:45.091Z,98450.17
2019-05-05T04:11:14.467Z,98444.28
2019-05-05T04:13:44.152Z,98454.22
2019-05-05T04:16:15.476Z,98458.94
2019-05-05T04:18:54.108Z,98460.19
2019-05-05T04:21:31.273Z,98460.83
2019-05-05T04:23:54.386Z,98462.78
2019-05-05T04:26:23.749Z,98463.94
2019-05-05T04:28:54.167Z,98459.58
2019-05-05T04:31:24.210Z,98461.38
2019-05-05T04:33:53.900Z,98461.83
2019-05-05T04:36:23.627Z,98467.38
2019-05-05T04:38:54.608Z,98473.53
2019-05-05T04:41:24.614Z,98476.47
2019-05-05T04:43:54.690Z,98478.08
2019-05-05T04:46:24.623Z,98488.12
2019-05-05T04:48:58.008Z,98487.94
2019-05-05T04:51:46.237Z,98488.62
2019-05-05T04:54:07.596Z,98491.73
2019-05-05T04:56:37.221Z,98490.43
2019-05-05T04:59:06.590Z,98484.42
2019-05-05T05:01:36.542Z,98485.08
2019-05-05T05:04:07.556Z,98489.98
2019-05-05T05:06:38.494Z,98489.20
2019-05-05T05:09:07.920Z,98492.64
2019-05-05T05:11:37.216Z,98489.89
2019-05-05T05:14:06.622Z,98490.09
2019-05-05T05:16:35.952Z,98488.48
2019-05-05T05:19:05.339Z,98487.69
2019-05-05T05:21:34.561Z,98491.13
2019-05-05T05:24:04.137Z,98482.84
2019-05-05T05:26:33.703Z,98483.22
2019-05-05T05:29:04.531Z,98489.08
2019-05-05T05:31:34.085Z,98486.33
2019-05-05T05:34:04.372Z,98486.17
2019-05-05T05:36:33.974Z,98491.73
2019-05-05T05:39:07.663Z,98493.03
2019-05-05T05:41:46.902Z,98491.58
2019-05-05T05:44:28.178Z,98487.72
2019-05-05T05:47:08.422Z,98492.92
2019-05-05T05:49:39.448Z,98498.31
2019-05-05T05:52:15.982Z,98498.97
2019-05-05T05:54:39.903Z,98492.50
2019-05-05T05:57:09.404Z,98496.26
2019-05-05T05:59:38.774Z,98494.11
2019-05-05T06:02:11.722Z,98503.53
2019-05-05T06:04:39.258Z,98507.59
2019-05-05T06:07:08.627Z,98505.48
2019-05-05T06:09:37.965Z,98507.08
2019-05-05T06:12:07.454Z,98510.18
2019-05-05T06:14:36.753Z,98506.28
2019-05-05T06:17:06.167Z,98513.13
2019-05-05T06:19:35.524Z,98511.98
2019-05-05T06:22:04.898Z,98514.09
2019-05-05T06:24:34.690Z,98514.09
2019-05-05T06:27:04.090Z,98511.33
2019-05-05T06:29:34.504Z,98512.48
2019-05-05T06:32:04.430Z,98512.98
2019-05-05T06:34:33.997Z,98513.64
2019-05-05T06:37:04.268Z,98507.32
2019-05-05T06:39:33.995Z,98511.22
2019-05-05T06:42:13.655Z,98514.48
2019-05-05T06:45:00.566Z,98520.22
2019-05-05T06:47:30.911Z,98517.13
2019-05-05T06:50:00.213Z,98513.11
2019-05-05T06:52:41.892Z,98516.70
2019-05-05T06:55:03.743Z,98511.53
2019-05-05T06:57:34.302Z,98512.22
2019-05-05T07:00:04.928Z,98511.95
2019-05-05T07:02:34.365Z,98517.16
2019-05-05T07:05:04.241Z,98511.02
2019-05-05T07:07:34.283Z,98527.14
2019-05-05T07:10:05.264Z,98519.27
2019-05-05T07:12:34.843Z,98520.10
2019-05-05T07:15:07.040Z,98513.14
2019-05-05T07:17:36.490Z,98515.72
2019-05-05T07:20:06.950Z,98527.19
2019-05-05T07:22:36.281Z,98527.70
2019-05-05T07:25:06.438Z,98529.16
2019-05-05T07:27:35.805Z,98533.09
2019-05-05T07:30:07.072Z,98521.05
2019-05-05T07:32:36.491Z,98518.63
2019-05-05T07:35:19.767Z,98518.83
2019-05-05T07:37:49.207Z,98522.77
2019-05-05T07:40:18.576Z,98527.67
2019-05-05T07:42:48.062Z,98528.31
2019-05-05T07:45:22.511Z,98532.41
2019-05-05T07:47:48.433Z,98529.95
2019-05-05T07:50:28.546Z,98526.70
2019-05-05T07:52:48.915Z,98525.08
2019-05-05T07:55:18.303Z,98532.73
2019-05-05T07:57:47.731Z,98527.67
2019-05-05T08:00:17.549Z,98531.26
2019-05-05T08:02:46.918Z,98524.75
2019-05-05T08:05:16.449Z,98528.69
2019-05-05T08:07:45.676Z,98524.09
2019-05-05T08:10:16.183Z,98529.20
2019-05-05T08:12:45.528Z,98525.62
2019-05-05T08:15:16.690Z,98523.80
2019-05-05T08:18:05.750Z,98535.21
2019-05-05T08:20:44.339Z,98529.98
2019-05-05T08:23:29.100Z,98529.95
2019-05-05T08:25:51.203Z,98537.77
2019-05-05T08:28:25.237Z,98536.59
2019-05-05T08:30:58.653Z,98529.59
2019-05-05T08:33:28.031Z,98534.78
2019-05-05T08:35:57.426Z,98526.43
2019-05-05T08:38:26.753Z,98525.25
2019-05-05T08:40:56.041Z,98533.06
2019-05-05T08:43:26.414Z,98529.02
2019-05-05T08:45:55.772Z,98525.43
2019-05-05T08:48:25.078Z,98533.58
2019-05-05T08:50:56.963Z,98532.09
2019-05-05T08:53:26.310Z,98530.69
2019-05-05T08:55:55.686Z,98540.48
2019-05-05T08:58:25.008Z,98532.97
2019-05-05T09:00:54.408Z,98533.12
2019-05-05T09:03:24.365Z,98532.14
2019-05-05T09:05:54.342Z,98529.50
2019-05-05T09:08:24.198Z,98527.11
2019-05-05T09:10:55.214Z,98528.34
2019-05-05T09:13:24.887Z,98530.07
2019-05-05T09:15:54.457Z,98534.49
2019-05-05T09:18:24.582Z,98532.57
2019-05-05T09:20:54.241Z,98532.66
2019-05-05T09:23:24.097Z,98527.64
2019-05-05T09:26:01.254Z,98532.00
2019-05-05T09:28:48.824Z,98526.54
2019-05-05T09:31:18.147Z,98522.94
2019-05-05T09:33:47.585Z,98539.99
2019-05-05T09:36:16.896Z,98528.23
2019-05-05T09:38:46.602Z,98524.26
2019-05-05T09:41:15.978Z,98525.35
2019-05-05T09:43:45.295Z,98529.07
2019-05-05T09:46:14.806Z,98529.48
2019-05-05T09:48:44.189Z,98547.59
2019-05-05T09:51:13.675Z,98542.16
2019-05-05T09:53:44.828Z,98545.34
2019-05-05T09:56:15.210Z,98547.33
2019-05-05T09:58:44.582Z,98549.41
2019-05-05T10:01:16.463Z,98550.03
2019-05-05T10:03:45.778Z,98542.88
2019-05-05T10:06:15.174Z,98531.36
2019-05-05T10:08:44.775Z,98534.20
2019-05-05T10:11:16.541Z,98533.27
2019-05-05T10:13:45.224Z,98533.58
2019-05-05T10:16:14.607Z,98527.41
2019-05-05T10:18:44.829Z,98539.25
2019-05-05T10:21:17.582Z,98540.00
2019-05-05T10:23:47.340Z,98533.65
2019-05-05T10:26:18.778Z,98531.02
2019-05-05T10:28:48.163Z,98532.88
2019-05-05T10:31:17.601Z,98535.90
2019-05-05T10:33:48.752Z,98536.31
2019-05-05T10:36:18.126Z,98535.01
2019-05-05T10:38:49.042Z,98538.03
2019-05-05T10:41:18.501Z,98533.70
2019-05-05T10:43:47.980Z,98527.60
2019-05-05T10:46:17.361Z,98533.39
2019-05-05T10:48:46.705Z,98533.70
2019-05-05T10:51:16.115Z,98527.91
2019-05-05T10:53:45.425Z,98526.81
2019-05-05T10:56:14.813Z,98518.38
2019-05-05T10:58:44.370Z,98521.59
2019-05-05T11:01:14.529Z,98515.20
2019-05-05T11:03:44.736Z,98524.16
2019-05-05T11:06:14.437Z,98523.02
2019-05-05T11:08:45.127Z,98531.75
2019-05-05T11:11:14.855Z,98521.83
2019-05-05T11:13:46.493Z,98519.34
2019-05-05T11:16:15.858Z,98530.41
2019-05-05T11:18:45.346Z,98535.98
2019-05-05T11:21:14.860Z,98539.30
2019-05-05T11:23:44.937Z,98543.46
2019-05-05T11:26:14.531Z,98539.97
2019-05-05T11:28:44.519Z,98547.75
2019-05-05T11:31:14.366Z,98548.00
2019-05-05T11:33:51.392Z,98550.27
2019-05-05T11:36:37.417Z,98549.08
2019-05-05T11:39:07.728Z,98552.71
2019-05-05T11:41:37.087Z,98557.95
2019-05-05T11:44:07.348Z,98559.72
2019-05-05T11:46:36.857Z,98553.58
2019-05-05T11:49:06.184Z,98558.96
2019-05-05T11:51:35.565Z,98551.22
2019-05-05T11:54:05.049Z,98552.81
2019-05-05T11:56:34.409Z,98560.70
2019-05-05T11:59:04.073Z,98557.45
2019-05-05T12:01:33.618Z,98553.95
2019-05-05T12:04:04.620Z,98551.88
2019-05-05T12:06:34.120Z,98551.70
2019-05-05T12:09:05.513Z,98552.30
2019-05-05T12:11:34.985Z,98563.01
2019-05-05T12:14:06.043Z,98560.08
2019-05-05T12:16:35.319Z,98566.00
2019-05-05T12:19:09.438Z,98566.59
2019-05-05T12:21:38.744Z,98561.42
2019-05-05T12:24:09.740Z,98566.04
2019-05-05T12:26:40.667Z,98564.56
2019-05-05T12:29:11.039Z,98567.17
2019-05-05T12:31:42.027Z,98573.86
2019-05-05T12:34:11.389Z,98572.20
2019-05-05T12:36:40.889Z,98569.59
2019-05-05T12:39:14.049Z,98566.93
2019-05-05T12:41:43.259Z,98569.27
2019-05-05T12:44:14.416Z,98562.46
2019-05-05T12:46:45.456Z,98561.60
2019-05-05T12:49:14.822Z,98574.52
2019-05-05T12:51:44.210Z,98570.66
2019-05-05T12:54:14.685Z,98568.40
2019-05-05T12:56:44.681Z,98554.27
2019-05-05T12:59:15.861Z,98548.48
2019-05-05T13:01:45.304Z,98557.22
2019-05-05T13:04:14.606Z,98558.84
2019-05-05T13:06:45.112Z,98554.59
2019-05-05T13:09:16.160Z,98555.08
2019-05-05T13:11:45.516Z,98562.77
2019-05-05T13:14:15.505Z,98557.75
2019-05-05T13:16:52.803Z,98553.34
2019-05-05T13:19:34.576Z,98563.78
2019-05-05T13:22:08.299Z,98556.47
2019-05-05T13:24:43.588Z,98554.03
2019-05-05T13:27:19.667Z,98559.45
2019-05-05T13:29:45.746Z,98546.98
2019-05-05T13:32:15.089Z,98544.80
2019-05-05T13:34:44.450Z,98550.57
2019-05-05T13:37:14.183Z,98554.59
2019-05-05T13:39:44.572Z,98556.23
2019-05-05T13:42:14.061Z,98557.94
2019-05-05T13:44:57.233Z,98567.77
2019-05-05T13:47:26.689Z,98576.28
2019-05-05T13:49:57.616Z,98579.33
2019-05-05T13:52:26.954Z,98583.33
2019-05-05T13:54:56.330Z,98574.77
2019-05-05T13:57:25.694Z,98584.31
2019-05-05T13:59:55.051Z,98584.89
2019-05-05T14:02:24.602Z,98590.33
2019-05-05T14:04:54.304Z,98597.52
2019-05-05T14:07:24.087Z,98601.73
2019-05-05T14:09:54.926Z,98605.34
2019-05-05T14:12:24.936Z,98606.39
2019-05-05T14:14:54.770Z,98612.22
2019-05-05T14:17:24.241Z,98606.00
2019-05-05T14:20:02.453Z,98606.86
2019-05-05T14:22:24.608Z,98614.74
2019-05-05T14:24:55.641Z,98618.88
2019-05-05T14:27:25.073Z,98623.78
2019-05-05T14:29:57.139Z,98631.59
2019-05-05T14:32:28.166Z,98625.94
2019-05-05T14:34:59.218Z,98623.96
2019-05-05T14:37:36.216Z,98648.86
2019-05-05T14:40:09.190Z,98650.70
2019-05-05T14:42:38.559Z,98648.16
2019-05-05T14:45:08.521Z,98642.81
2019-05-05T14:47:37.959Z,98646.40
2019-05-05T14:50:07.707Z,98650.49
2019-05-05T14:52:37.019Z,98663.98
2019-05-05T14:55:08.037Z,98661.08
2019-05-05T14:57:37.674Z,98674.56
2019-05-05T15:00:11.076Z,98674.08
2019-05-05T15:02:40.781Z,98671.97
2019-05-05T15:05:28.332Z,98671.98
2019-05-05T15:08:02.346Z,98675.44
2019-05-05T15:10:48.303Z,98687.81
2019-05-05T15:13:19.276Z,98687.75
2019-05-05T15:15:48.667Z,98678.37
2019-05-05T15:18:18.060Z,98690.95
2019-05-05T15:20:47.863Z,98694.14
2019-05-05T15:23:17.240Z,98710.48
2019-05-05T15:25:46.640Z,98710.88
2019-05-05T15:28:16.047Z,98716.63
2019-05-05T15:30:45.466Z,98713.18
2019-05-05T15:33:14.856Z,98719.45
2019-05-05T15:35:46.508Z,98718.38
2019-05-05T15:38:15.436Z,98728.75
2019-05-05T15:40:47.785Z,98731.88
2019-05-05T15:43:15.960Z,98730.33
2019-05-05T15:45:46.453Z,98738.16
2019-05-05T15:48:16.016Z,98738.58
2019-05-05T15:50:45.414Z,98745.80
2019-05-05T15:53:14.868Z,98751.54
2019-05-05T15:55:51.029Z,98747.86
2019-05-05T15:58:24.513Z,98744.94
2019-05-05T16:00:54.597Z,98753.56
2019-05-05T16:03:24.144Z,98752.92
2019-05-05T16:05:54.287Z,98756.25
2019-05-05T16:08:23.871Z,98745.33
2019-05-05T16:10:54.730Z,98754.92
2019-05-05T16:13:24.284Z,98767.20
2019-05-05T16:15:55.784Z,98778.03
2019-05-05T16:18:27.136Z,98770.17
2019-05-05T16:21:01.299Z,98772.77
2019-05-05T16:23:35.928Z,98769.16
2019-05-05T16:26:05.449Z,98769.22
2019-05-05T16:28:34.815Z,98780.19
2019-05-05T16:31:05.416Z,98775.61
2019-05-05T16:33:35.098Z,98794.52
2019-05-05T16:36:06.325Z,98792.75
2019-05-05T16:38:36.523Z,98791.59
2019-05-05T16:41:06.367Z,98794.09
2019-05-05T16:43:35.708Z,98798.70
2019-05-05T16:46:05.225Z,98806.55
2019-05-05T16:48:34.655Z,98811.13
2019-05-05T16:51:05.687Z,98814.73
2019-05-05T16:53:36.141Z,98812.00
2019-05-05T16:56:08.952Z,98819.03
2019-05-05T16:58:38.589Z,98826.55
2019-05-05T17:01:09.615Z,98828.31
2019-05-05T17:03:39.074Z,98829.19
2019-05-05T17:06:08.602Z,98838.19
2019-05-05T17:08:38.182Z,98838.70
2019-05-05T17:11:07.787Z,98838.38
2019-05-05T17:13:44.133Z,98842.58
2019-05-05T17:16:34.996Z,98844.55
2019-05-05T17:19:04.775Z,98850.48
2019-05-05T17:21:41.912Z,98844.28
2019-05-05T17:24:11.442Z,98851.83
2019-05-05T17:26:40.818Z,98846.67
2019-05-05T17:29:12.117Z,98847.94
2019-05-05T17:31:41.941Z,98846.62
2019-05-05T17:34:11.352Z,98848.59
2019-05-05T17:36:40.721Z,98871.05
2019-05-05T17:39:10.217Z,98855.19
2019-05-05T17:41:47.915Z,98848.66
2019-05-05T17:44:24.109Z,98854.99
2019-05-05T17:46:55.485Z,98863.95
2019-05-05T17:49:43.541Z,98860.94
2019-05-05T17:52:18.536Z,98860.25
2019-05-05T17:54:49.993Z,98863.26
2019-05-05T17:57:19.473Z,98871.39
2019-05-05T17:59:48.953Z,98883.17
2019-05-05T18:02:18.467Z,98883.90
2019-05-05T18:04:48.108Z,98896.60
2019-05-05T18:07:37.454Z,98899.44
2019-05-05T18:10:09.008Z,98906.02
2019-05-05T18:12:55.957Z,98907.46
2019-05-05T18:15:43.543Z,98924.38
2019-05-05T18:18:13.947Z,98928.72
2019-05-05T18:20:44.940Z,98937.66
2019-05-05T18:23:14.462Z,98939.41
2019-05-05T18:25:44.242Z,98950.42
2019-05-05T18:28:19.730Z,98948.87
2019-05-05T18:30:45.294Z,98952.75
2019-05-05T18:33:14.714Z,98954.22
2019-05-05T18:35:44.578Z,98963.59
2019-05-05T18:38:13.980Z,98967.67
2019-05-05T18:40:44.071Z,98973.39
2019-05-05T18:43:15.284Z,98979.52
2019-05-05T18:45:44.675Z,98984.27
2019-05-05T18:48:14.087Z,98977.99
2019-05-05T18:50:43.547Z,98989.34
2019-05-05T18:53:14.085Z,98987.09
2019-05-05T18:55:44.606Z,98991.77
2019-05-05T18:58:26.875Z,98992.09
2019-05-05T19:00:58.920Z,99005.28
2019-05-05T19:03:44.900Z,99006.78
2019-05-05T19:06:18.618Z,99009.95
2019-05-05T19:08:57.207Z,99004.08
2019-05-05T19:11:26.876Z,99014.14
2019-05-05T19:13:56.593Z,99003.66
2019-05-05T19:16:26.167Z,99011.30
2019-05-05T19:18:55.777Z,99017.94
2019-05-05T19:21:29.986Z,99018.55
2019-05-05T19:23:59.451Z,99014.41
2019-05-05T19:26:29.246Z,99018.70
2019-05-05T19:28:58.773Z,99019.65
2019-05-05T19:31:28.348Z,99021.91
2019-05-05T19:33:57.768Z,99016.33
2019-05-05T19:36:27.561Z,99020.67
2019-05-05T19:38:57.200Z,99026.31
2019-05-05T19:41:26.654Z,99030.99
2019-05-05T19:43:56.155Z,99033.84
2019-05-05T19:46:30.398Z,99027.49
2019-05-05T19:49:19.581Z,99033.09
2019-05-05T19:51:49.847Z,99037.28
2019-05-05T19:54:19.277Z,99025.13
2019-05-05T19:56:48.969Z,99028.25
2019-05-05T19:59:18.702Z,99036.84
2019-05-05T20:01:48.202Z,99035.38
2019-05-05T20:04:17.605Z,99035.96
2019-05-05T20:06:47.090Z,99033.98
2019-05-05T20:09:16.539Z,99040.91
2019-05-05T20:11:45.921Z,99032.22
2019-05-05T20:14:15.396Z,99042.20
2019-05-05T20:17:04.883Z,99036.20
2019-05-05T20:19:36.296Z,99032.20
2019-05-05T20:22:06.062Z,99040.11
2019-05-05T20:24:35.564Z,99039.27
2019-05-05T20:27:05.138Z,99035.20
2019-05-05T20:29:37.396Z,99038.32
2019-05-05T20:32:06.006Z,99034.05
2019-05-05T20:34:37.169Z,99040.45
2019-05-05T20:37:08.330Z,99034.55
2019-05-05T20:39:39.135Z,99037.14
2019-05-05T20:42:08.751Z,99041.31
2019-05-05T20:44:38.576Z,99028.52
2019-05-05T20:47:07.873Z,99022.44
2019-05-05T20:49:37.853Z,99014.81
2019-05-05T20:52:07.433Z,99028.99
2019-05-05T20:54:36.857Z,99029.56
2019-05-05T20:57:06.231Z,99029.98
2019-05-05T20:59:35.566Z,99028.38
2019-05-05T21:02:05.052Z,99031.30
2019-05-05T21:04:34.732Z,99033.44
2019-05-05T21:07:04.742Z,99033.74
2019-05-05T21:09:34.673Z,99034.93
2019-05-05T21:12:04.875Z,99028.38
2019-05-05T21:14:37.878Z,99042.19
2019-05-05T21:17:05.829Z,99041.58
2019-05-05T21:19:35.190Z,99028.79
2019-05-05T21:22:22.704Z,99025.56
2019-05-05T21:24:54.240Z,99019.91
2019-05-05T21:27:24.482Z,99023.56
2019-05-05T21:29:54.387Z,99023.84
2019-05-05T21:32:25.377Z,99030.72
2019-05-05T21:34:55.215Z,99021.70
2019-05-05T21:37:24.984Z,99027.33
2019-05-05T21:39:55.165Z,99032.31
2019-05-05T21:42:24.885Z,99032.79
2019-05-05T21:44:54.142Z,99038.15
2019-05-05T21:47:24.057Z,99039.53
2019-05-05T21:49:54.485Z,99039.70
2019-05-05T21:52:25.410Z,99028.92
2019-05-05T21:54:56.487Z,99034.28
2019-05-05T21:57:36.218Z,99034.86
2019-05-05T22:00:11.064Z,99046.19
2019-05-05T22:02:40.697Z,99049.53
2019-05-05T22:05:10.238Z,99051.84
2019-05-05T22:07:39.609Z,99057.09
2019-05-05T22:10:09.373Z,99058.00
2019-05-05T22:12:38.739Z,99052.51
2019-05-05T22:15:08.796Z,99061.53
2019-05-05T22:17:40.612Z,99058.67
2019-05-05T22:20:11.821Z,99064.94
2019-05-05T22:22:45.037Z,99071.05
2019-05-05T22:25:14.202Z,99062.46
2019-05-05T22:27:44.107Z,99060.16
2019-05-05T22:30:14.336Z,99057.58
2019-05-05T22:32:44.224Z,99062.13
2019-05-05T22:35:16.172Z,99063.60
2019-05-05T22:37:44.977Z,99060.38
2019-05-05T22:40:24.340Z,99067.00
2019-05-05T22:42:54.762Z,99057.98
2019-05-05T22:45:24.196Z,99062.86
2019-05-05T22:47:54.320Z,99056.07
2019-05-05T22:50:24.663Z,99055.41
2019-05-05T22:52:54.623Z,99054.48
2019-05-05T22:55:24.791Z,99050.25
2019-05-05T22:57:54.589Z,99052.73
2019-05-05T23:00:29.231Z,99048.77
2019-05-05T23:02:57.598Z,99040.41
2019-05-05T23:05:34.656Z,99048.66
2019-05-05T23:08:05.084Z,99041.20
2019-05-05T23:10:35.376Z,99049.58
2019-05-05T23:13:04.779Z,99026.39
2019-05-05T23:15:35.791Z,99028.15
2019-05-05T23:18:07.183Z,99021.23
2019-05-05T23:21:07.032Z,99025.47
2019-05-05T23:23:50.154Z,99028.42
2019-05-05T23:26:29.729Z,99028.94
2019-05-05T23:28:59.188Z,99027.28
2019-05-05T23:31:28.412Z,99026.36
2019-05-05T23:33:59.046Z,99020.49
2019-05-05T23:36:28.398Z,99027.75
2019-05-05T23:38:57.687Z,99020.39
2019-05-05T23:41:27.092Z,99020.73
2019-05-05T23:43:56.313Z,99028.27
2019-05-05T23:46:25.703Z,99022.77
2019-05-05T23:48:55.109Z,99019.82
2019-05-05T23:51:24.394Z,99017.05
2019-05-05T23:53:55.087Z,99021.20
2019-05-05T23:56:24.602Z,99030.40
2019-05-05T23:58:54.996Z,99034.56
